createdAt,value
2017-12-09T00:00:24.732Z,33.40
2017-12-09T00:02:52.932Z,33.30
2017-12-09T00:05:20.356Z,33.20
2017-12-09T00:07:47.780Z,33.30
2017-12-09T00:10:15.217Z,33.70
2017-12-09T00:12:42.641Z,33.50
2017-12-09T00:15:10.838Z,33.70
2017-12-09T00:17:38.253Z,33.60
2017-12-09T00:20:05.679Z,33.10
2017-12-09T00:22:40.892Z,33.40
2017-12-09T00:25:09.105Z,33.50
2017-12-09T00:27:37.216Z,33.80
2017-12-09T00:30:04.652Z,34.00
2017-12-09T00:32:32.845Z,34.10
2017-12-09T00:35:00.293Z,34.10
2017-12-09T00:37:27.724Z,34.50
2017-12-09T00:39:55.150Z,34.90
2017-12-09T00:44:56.508Z,34.60
2017-12-09T00:47:23.945Z,34.60
2017-12-09T00:49:51.359Z,34.90
2017-12-09T00:52:19.560Z,35.10
2017-12-09T00:54:46.980Z,34.90
2017-12-09T00:57:14.415Z,34.90
2017-12-09T00:59:41.831Z,34.90
2017-12-09T01:02:09.270Z,34.90
2017-12-09T01:04:37.460Z,34.90
2017-12-09T01:07:04.890Z,34.80
2017-12-09T01:09:33.105Z,34.40
2017-12-09T01:12:00.665Z,34.50
2017-12-09T01:14:28.068Z,34.10
2017-12-09T01:17:07.369Z,34.00
2017-12-09T01:19:34.788Z,33.30
2017-12-09T01:22:02.230Z,33.00
2017-12-09T01:24:29.661Z,32.90
2017-12-09T01:26:57.075Z,32.80
2017-12-09T01:29:24.516Z,33.00
2017-12-09T01:31:51.944Z,32.80
2017-12-09T01:34:20.145Z,33.00
2017-12-09T01:36:47.575Z,33.00
2017-12-09T01:39:15.777Z,32.40
2017-12-09T01:41:43.202Z,32.40
2017-12-09T01:44:10.643Z,31.90
2017-12-09T01:46:38.071Z,31.80
2017-12-09T01:49:05.495Z,32.00
2017-12-09T01:51:32.918Z,31.80
2017-12-09T01:54:00.345Z,32.30
2017-12-09T01:56:27.773Z,32.90
2017-12-09T01:58:55.208Z,32.60
2017-12-09T02:01:22.619Z,32.40
2017-12-09T02:03:50.053Z,32.30
2017-12-09T02:06:17.473Z,32.50
2017-12-09T02:08:44.906Z,32.30
2017-12-09T02:11:12.333Z,32.30
2017-12-09T02:13:39.752Z,32.10
2017-12-09T02:16:07.188Z,31.90
2017-12-09T02:18:34.617Z,32.50
2017-12-09T02:21:02.049Z,32.60
2017-12-09T02:23:29.476Z,32.90
2017-12-09T02:25:56.912Z,33.10
2017-12-09T02:28:25.101Z,33.00
2017-12-09T02:30:52.527Z,32.90
2017-12-09T02:33:20.720Z,32.60
2017-12-09T02:35:48.157Z,32.50
2017-12-09T02:38:15.584Z,32.80
2017-12-09T02:40:43.032Z,32.40
2017-12-09T02:43:10.453Z,33.30
2017-12-09T02:45:37.880Z,32.90
2017-12-09T02:48:05.297Z,33.30
2017-12-09T02:50:32.716Z,33.20
2017-12-09T02:53:00.152Z,33.60
2017-12-09T02:55:28.349Z,33.30
2017-12-09T02:57:55.767Z,33.30
2017-12-09T03:00:23.187Z,33.40
2017-12-09T03:02:50.612Z,33.30
2017-12-09T03:05:18.049Z,33.30
2017-12-09T03:07:46.247Z,33.70
2017-12-09T03:10:13.668Z,33.50
2017-12-09T03:12:41.102Z,33.70
2017-12-09T03:15:08.528Z,33.70
2017-12-09T03:17:35.987Z,34.10
2017-12-09T03:20:03.412Z,33.70
2017-12-09T03:22:31.613Z,33.50
2017-12-09T03:24:59.036Z,33.50
2017-12-09T03:27:26.460Z,33.60
2017-12-09T03:29:53.896Z,33.20
2017-12-09T03:32:21.316Z,33.30
2017-12-09T03:34:48.794Z,33.50
2017-12-09T03:37:16.197Z,33.30
2017-12-09T03:39:43.636Z,33.20
2017-12-09T03:42:11.060Z,33.40
2017-12-09T03:44:38.498Z,32.20
2017-12-09T03:47:05.917Z,32.30
2017-12-09T03:49:33.354Z,32.20
2017-12-09T03:52:00.781Z,32.10
2017-12-09T03:54:28.216Z,32.40
2017-12-09T03:56:55.635Z,32.90
2017-12-09T03:59:23.083Z,32.30
2017-12-09T04:01:50.509Z,32.20
2017-12-09T04:04:17.963Z,32.00
2017-12-09T04:06:45.373Z,32.20
2017-12-09T04:09:13.567Z,32.00
2017-12-09T04:11:41.001Z,31.90
2017-12-09T04:14:08.502Z,31.90
2017-12-09T04:16:35.886Z,31.00
2017-12-09T04:19:03.313Z,31.30
2017-12-09T04:21:30.750Z,31.40
2017-12-09T04:23:58.173Z,31.50
2017-12-09T04:26:25.608Z,30.30
2017-12-09T04:28:53.029Z,30.60
2017-12-09T04:31:20.463Z,30.10
2017-12-09T04:33:47.880Z,30.30
2017-12-09T04:36:16.817Z,30.10
2017-12-09T04:38:44.241Z,29.80
2017-12-09T04:41:11.673Z,29.60
2017-12-09T04:43:39.109Z,29.80
2017-12-09T04:46:06.532Z,29.70
2017-12-09T04:48:34.704Z,29.80
2017-12-09T04:51:02.133Z,29.70
2017-12-09T04:53:29.548Z,30.00
2017-12-09T04:55:56.982Z,30.00
2017-12-09T04:58:24.412Z,29.80
2017-12-09T05:00:52.614Z,29.70
2017-12-09T05:03:20.048Z,29.60
2017-12-09T05:05:47.468Z,29.60
2017-12-09T05:08:14.887Z,29.70
2017-12-09T05:10:42.313Z,29.60
2017-12-09T05:13:10.521Z,30.20
2017-12-09T05:15:37.949Z,30.10
2017-12-09T05:18:05.385Z,30.20
2017-12-09T05:20:32.801Z,29.90
2017-12-09T05:23:00.244Z,30.10
2017-12-09T05:25:27.668Z,29.90
2017-12-09T05:27:55.843Z,29.70
2017-12-09T05:30:23.283Z,29.70
2017-12-09T05:32:50.719Z,30.50
2017-12-09T05:35:18.148Z,29.90
2017-12-09T05:37:45.585Z,30.00
2017-12-09T05:40:13.017Z,29.60
2017-12-09T05:42:42.404Z,29.60
2017-12-09T05:45:09.851Z,29.60
2017-12-09T05:47:37.280Z,29.60
2017-12-09T05:50:04.726Z,29.50
2017-12-09T05:52:32.318Z,28.80
2017-12-09T05:54:59.765Z,28.50
2017-12-09T05:57:27.194Z,28.50
2017-12-09T05:59:55.844Z,28.20
2017-12-09T06:02:24.023Z,28.30
2017-12-09T06:04:51.480Z,28.30
2017-12-09T06:07:18.891Z,28.40
2017-12-09T06:09:46.318Z,28.50
2017-12-09T06:12:13.748Z,28.30
2017-12-09T06:14:41.173Z,28.30
2017-12-09T06:17:08.612Z,28.50
2017-12-09T06:19:36.027Z,28.80
2017-12-09T06:22:03.476Z,29.00
2017-12-09T06:24:30.883Z,29.10
2017-12-09T06:26:58.339Z,29.30
2017-12-09T06:29:25.768Z,29.50
2017-12-09T06:31:53.206Z,29.50
2017-12-09T06:34:20.632Z,29.50
2017-12-09T06:36:48.066Z,29.50
2017-12-09T06:39:15.490Z,29.50
2017-12-09T06:41:42.945Z,29.50
2017-12-09T06:44:10.413Z,31.90
2017-12-09T06:46:37.972Z,35.00
2017-12-09T06:49:05.410Z,29.20
2017-12-09T06:51:32.848Z,27.80
2017-12-09T06:54:00.285Z,27.60
2017-12-09T06:56:27.708Z,28.00
2017-12-09T06:58:55.139Z,28.30
2017-12-09T07:01:22.556Z,28.70
2017-12-09T07:03:49.988Z,27.70
2017-12-09T07:06:17.508Z,28.00
2017-12-09T07:08:44.939Z,27.60
2017-12-09T07:11:12.356Z,27.90
2017-12-09T07:13:39.807Z,28.00
2017-12-09T07:16:07.219Z,28.20
2017-12-09T07:18:34.648Z,28.30
2017-12-09T07:21:02.860Z,28.60
2017-12-09T07:23:30.297Z,28.50
2017-12-09T07:25:57.713Z,28.70
2017-12-09T07:28:25.172Z,28.80
2017-12-09T07:30:52.599Z,28.90
2017-12-09T07:33:20.034Z,29.00
2017-12-09T07:35:47.465Z,28.80
2017-12-09T07:38:15.659Z,28.50
2017-12-09T07:40:43.091Z,28.40
2017-12-09T07:43:11.282Z,28.60
2017-12-09T07:45:38.716Z,28.60
2017-12-09T07:48:06.141Z,28.30
2017-12-09T07:50:33.580Z,28.50
2017-12-09T07:53:01.012Z,28.70
2017-12-09T07:55:28.441Z,28.90
2017-12-09T07:57:56.632Z,28.40
2017-12-09T08:00:24.067Z,28.40
2017-12-09T08:02:51.522Z,27.90
2017-12-09T08:05:19.382Z,28.30
2017-12-09T08:07:47.590Z,28.40
2017-12-09T08:10:15.018Z,28.40
2017-12-09T08:12:42.423Z,28.60
2017-12-09T08:15:09.873Z,28.30
2017-12-09T08:17:37.305Z,28.70
2017-12-09T08:20:04.738Z,28.60
2017-12-09T08:22:32.920Z,28.10
2017-12-09T08:25:02.084Z,27.20
2017-12-09T08:27:30.327Z,27.10
2017-12-09T08:29:57.747Z,27.10
2017-12-09T08:32:25.234Z,26.20
2017-12-09T08:34:52.791Z,26.00
2017-12-09T08:37:20.237Z,25.50
2017-12-09T08:39:47.663Z,24.80
2017-12-09T08:42:15.099Z,23.60
2017-12-09T08:44:42.521Z,23.70
2017-12-09T08:47:09.998Z,24.10
2017-12-09T08:49:37.428Z,25.00
2017-12-09T08:52:04.888Z,24.90
2017-12-09T08:54:32.360Z,24.40
2017-12-09T08:57:00.609Z,24.30
2017-12-09T08:59:27.994Z,24.30
2017-12-09T09:01:55.423Z,23.30
2017-12-09T09:04:22.967Z,23.80
2017-12-09T09:06:51.155Z,22.40
2017-12-09T09:09:18.618Z,22.30
2017-12-09T09:11:46.049Z,22.50
2017-12-09T09:14:13.480Z,22.90
2017-12-09T09:16:41.127Z,21.70
2017-12-09T09:19:08.551Z,22.10
2017-12-09T09:21:35.990Z,22.00
2017-12-09T09:24:03.430Z,22.30
2017-12-09T09:26:30.873Z,22.40
2017-12-09T09:28:58.338Z,22.90
2017-12-09T09:31:25.756Z,23.10
2017-12-09T09:33:53.187Z,23.10
2017-12-09T09:36:20.645Z,22.40
2017-12-09T09:38:48.066Z,21.70
2017-12-09T09:41:15.548Z,21.60
2017-12-09T09:43:42.986Z,21.00
2017-12-09T09:46:10.458Z,21.10
2017-12-09T09:48:38.081Z,20.90
2017-12-09T09:51:06.273Z,19.80
2017-12-09T09:53:33.713Z,19.80
2017-12-09T09:56:01.170Z,20.30
2017-12-09T09:58:28.573Z,19.80
2017-12-09T10:00:56.024Z,19.30
2017-12-09T10:03:23.613Z,19.20
2017-12-09T10:05:51.054Z,19.10
2017-12-09T10:08:18.468Z,18.20
2017-12-09T10:10:45.943Z,16.70
2017-12-09T10:13:13.377Z,17.90
2017-12-09T10:15:40.809Z,18.20
2017-12-09T10:18:08.250Z,18.10
2017-12-09T10:20:35.675Z,17.60
2017-12-09T10:23:03.148Z,17.10
2017-12-09T10:25:30.558Z,17.20
2017-12-09T10:27:58.766Z,17.90
2017-12-09T10:30:26.328Z,17.90
2017-12-09T10:32:53.753Z,17.90
2017-12-09T10:35:21.183Z,18.20
2017-12-09T10:37:48.607Z,18.40
2017-12-09T10:40:16.200Z,18.90
2017-12-09T10:42:44.392Z,17.90
2017-12-09T10:45:11.824Z,17.80
2017-12-09T10:47:39.395Z,17.40
2017-12-09T10:50:07.036Z,17.80
2017-12-09T10:52:34.494Z,17.00
2017-12-09T10:55:01.922Z,17.10
2017-12-09T10:57:29.356Z,15.10
2017-12-09T10:59:57.061Z,17.00
2017-12-09T11:02:24.481Z,16.70
2017-12-09T11:04:51.912Z,16.60
2017-12-09T11:07:19.333Z,16.20
2017-12-09T11:09:46.820Z,15.60
2017-12-09T11:12:14.245Z,15.20
2017-12-09T11:14:42.441Z,15.10
2017-12-09T11:17:09.876Z,15.10
2017-12-09T11:19:38.073Z,14.10
2017-12-09T11:22:05.502Z,14.00
2017-12-09T11:24:32.929Z,14.00
2017-12-09T11:27:00.385Z,13.40
2017-12-09T11:29:27.799Z,12.60
2017-12-09T11:31:55.235Z,13.30
2017-12-09T11:34:23.415Z,12.20
2017-12-09T11:36:50.853Z,12.10
2017-12-09T11:39:18.285Z,12.00
2017-12-09T11:41:45.717Z,11.60
2017-12-09T11:44:13.145Z,11.70
2017-12-09T11:46:40.579Z,12.80
2017-12-09T11:49:08.765Z,12.20
2017-12-09T11:51:36.188Z,12.10
2017-12-09T11:54:03.652Z,12.70
2017-12-09T11:56:31.036Z,13.30
2017-12-09T11:58:59.245Z,15.10
2017-12-09T12:01:26.668Z,15.00
2017-12-09T12:03:54.105Z,16.20
2017-12-09T12:06:21.531Z,15.70
2017-12-09T12:08:49.023Z,15.90
2017-12-09T12:11:16.389Z,17.00
2017-12-09T12:13:44.589Z,17.40
2017-12-09T12:16:12.000Z,17.40
2017-12-09T12:18:39.433Z,17.40
2017-12-09T12:21:06.853Z,17.40
2017-12-09T12:23:34.289Z,17.70
2017-12-09T12:26:01.708Z,17.80
2017-12-09T12:28:29.160Z,18.20
2017-12-09T12:30:56.592Z,18.50
2017-12-09T12:33:24.016Z,19.30
2017-12-09T12:35:51.443Z,19.10
2017-12-09T12:38:18.865Z,18.60
2017-12-09T12:40:46.302Z,18.60
2017-12-09T12:43:13.724Z,18.60
2017-12-09T12:45:41.168Z,18.60
2017-12-09T12:48:08.596Z,19.20
2017-12-09T12:50:36.033Z,18.90
2017-12-09T12:53:03.446Z,18.70
2017-12-09T12:55:31.644Z,20.20
2017-12-09T12:57:59.084Z,20.20
2017-12-09T13:00:26.521Z,18.40
2017-12-09T13:02:53.950Z,19.40
2017-12-09T13:05:21.392Z,19.60
2017-12-09T13:07:48.816Z,19.70
2017-12-09T13:10:16.248Z,18.90
2017-12-09T13:12:44.446Z,17.90
2017-12-09T13:15:11.870Z,17.90
2017-12-09T13:17:39.300Z,19.30
2017-12-09T13:20:06.735Z,17.70
2017-12-09T13:22:34.198Z,17.20
2017-12-09T13:25:01.591Z,17.90
2017-12-09T13:27:29.032Z,18.20
2017-12-09T13:29:56.450Z,18.20
2017-12-09T13:32:23.880Z,19.00
2017-12-09T13:34:51.301Z,18.90
2017-12-09T13:37:18.744Z,18.30
2017-12-09T13:39:46.156Z,17.90
2017-12-09T13:42:13.590Z,18.40
2017-12-09T13:44:41.017Z,18.00
2017-12-09T13:47:08.454Z,18.60
2017-12-09T13:49:35.869Z,19.00
2017-12-09T13:52:04.076Z,18.30
2017-12-09T13:54:31.544Z,18.30
2017-12-09T13:56:59.001Z,19.00
2017-12-09T13:59:27.237Z,20.00
2017-12-09T14:01:54.666Z,19.70
2017-12-09T14:04:22.105Z,19.70
2017-12-09T14:06:49.553Z,18.80
2017-12-09T14:09:16.993Z,19.00
2017-12-09T14:11:44.527Z,18.90
2017-12-09T14:14:11.969Z,19.50
2017-12-09T14:16:40.169Z,19.20
2017-12-09T14:19:07.606Z,19.20
2017-12-09T14:21:35.027Z,19.40
2017-12-09T14:24:02.455Z,19.00
2017-12-09T14:26:29.892Z,19.20
2017-12-09T14:28:57.323Z,18.90
2017-12-09T14:31:25.514Z,18.90
2017-12-09T14:33:52.951Z,18.80
2017-12-09T14:36:20.359Z,19.00
2017-12-09T14:38:47.796Z,19.60
2017-12-09T14:41:15.221Z,18.70
2017-12-09T14:43:43.412Z,19.40
2017-12-09T14:46:10.836Z,19.40
2017-12-09T14:48:38.289Z,19.70
2017-12-09T14:51:05.718Z,18.80
2017-12-09T14:53:33.141Z,19.30
2017-12-09T14:56:00.571Z,19.10
2017-12-09T14:58:28.769Z,19.40
2017-12-09T15:00:56.196Z,19.40
2017-12-09T15:03:23.604Z,19.40
2017-12-09T15:05:51.046Z,19.30
2017-12-09T15:08:18.613Z,22.00
2017-12-09T15:10:46.878Z,20.40
2017-12-09T15:13:14.242Z,20.40
2017-12-09T15:15:41.679Z,20.00
2017-12-09T15:18:09.105Z,20.20
2017-12-09T15:20:36.558Z,20.30
2017-12-09T15:23:03.985Z,19.90
2017-12-09T15:25:31.409Z,19.70
2017-12-09T15:27:59.054Z,20.10
2017-12-09T15:30:26.457Z,19.70
2017-12-09T15:32:53.890Z,19.70
2017-12-09T15:35:21.318Z,19.10
2017-12-09T15:37:49.124Z,20.00
2017-12-09T15:40:16.549Z,20.60
2017-12-09T15:42:44.001Z,21.10
2017-12-09T15:45:11.419Z,21.30
2017-12-09T15:47:38.852Z,21.20
2017-12-09T15:50:06.284Z,21.40
2017-12-09T15:52:46.265Z,21.90
2017-12-09T15:55:13.689Z,21.60
2017-12-09T15:57:41.436Z,21.30
2017-12-09T16:00:09.207Z,20.50
2017-12-09T16:02:36.622Z,20.80
2017-12-09T16:05:04.829Z,21.00
2017-12-09T16:07:39.990Z,20.90
2017-12-09T16:10:10.763Z,20.70
2017-12-09T16:12:38.686Z,20.70
2017-12-09T16:15:06.132Z,20.20
2017-12-09T16:17:33.560Z,20.40
2017-12-09T16:20:00.997Z,20.50
2017-12-09T16:22:28.427Z,20.50
2017-12-09T16:24:55.856Z,21.00
2017-12-09T16:27:23.294Z,20.10
2017-12-09T16:29:50.748Z,20.60
2017-12-09T16:32:18.226Z,20.50
2017-12-09T16:34:45.648Z,21.30
2017-12-09T16:37:13.157Z,20.50
2017-12-09T16:39:40.579Z,20.50
2017-12-09T16:42:08.007Z,19.70
2017-12-09T16:44:35.433Z,20.00
2017-12-09T16:47:02.920Z,20.10
2017-12-09T16:49:30.342Z,20.60
2017-12-09T16:51:57.776Z,20.50
2017-12-09T16:54:25.225Z,20.90
2017-12-09T16:56:52.732Z,20.90
2017-12-09T16:59:20.177Z,21.00
2017-12-09T17:01:47.596Z,21.00
2017-12-09T17:04:15.036Z,21.00
2017-12-09T17:06:42.520Z,20.80
2017-12-09T17:09:09.944Z,20.70
2017-12-09T17:11:37.365Z,20.20
2017-12-09T17:14:04.805Z,20.40
2017-12-09T17:16:32.264Z,21.10
2017-12-09T17:18:59.741Z,20.00
2017-12-09T17:21:27.965Z,21.30
2017-12-09T17:23:56.089Z,21.20
2017-12-09T17:26:23.553Z,21.10
2017-12-09T17:28:51.748Z,20.90
2017-12-09T17:31:19.170Z,20.80
2017-12-09T17:33:47.388Z,21.80
2017-12-09T17:36:14.833Z,21.50
2017-12-09T17:38:42.265Z,21.40
2017-12-09T17:41:09.701Z,21.60
2017-12-09T17:43:37.121Z,22.00
2017-12-09T17:46:04.553Z,22.50
2017-12-09T17:48:31.973Z,22.90
2017-12-09T17:50:59.408Z,23.00
2017-12-09T17:53:26.944Z,23.70
2017-12-09T17:55:54.354Z,23.50
2017-12-09T17:58:22.540Z,24.20
2017-12-09T18:00:49.980Z,24.20
2017-12-09T18:03:18.169Z,24.90
2017-12-09T18:05:45.621Z,24.80
2017-12-09T18:08:13.040Z,25.00
2017-12-09T18:10:40.471Z,25.20
2017-12-09T18:13:07.897Z,25.30
2017-12-09T18:15:35.338Z,25.30
2017-12-09T18:18:02.755Z,25.40
2017-12-09T18:20:30.187Z,25.00
2017-12-09T18:22:57.645Z,25.00
2017-12-09T18:25:25.056Z,25.10
2017-12-09T18:27:53.271Z,25.40
2017-12-09T18:30:20.716Z,25.40
2017-12-09T18:32:48.148Z,25.10
2017-12-09T18:35:15.568Z,25.00
2017-12-09T18:37:42.997Z,24.80
2017-12-09T18:40:10.484Z,24.80
2017-12-09T18:42:38.624Z,24.40
2017-12-09T18:45:06.038Z,24.30
2017-12-09T18:47:33.457Z,24.60
2017-12-09T18:50:00.895Z,24.60
2017-12-09T18:52:28.316Z,24.60
2017-12-09T18:54:56.514Z,24.80
2017-12-09T18:57:23.941Z,24.70
2017-12-09T18:59:51.387Z,25.00
2017-12-09T19:02:18.817Z,24.70
2017-12-09T19:04:46.240Z,24.70
2017-12-09T19:07:13.673Z,25.00
2017-12-09T19:09:41.103Z,25.20
2017-12-09T19:12:08.525Z,24.80
2017-12-09T19:14:35.952Z,25.50
2017-12-09T19:17:03.589Z,25.60
2017-12-09T19:19:31.018Z,25.10
2017-12-09T19:21:58.440Z,24.80
2017-12-09T19:24:25.881Z,24.80
2017-12-09T19:26:53.317Z,24.80
2017-12-09T19:29:21.513Z,25.30
2017-12-09T19:31:48.944Z,25.20
2017-12-09T19:34:16.367Z,24.90
2017-12-09T19:36:43.803Z,24.80
2017-12-09T19:39:11.246Z,24.80
2017-12-09T19:41:38.676Z,24.80
2017-12-09T19:44:06.108Z,24.80
2017-12-09T19:46:33.529Z,24.80
2017-12-09T19:49:00.962Z,25.00
2017-12-09T19:51:28.398Z,24.80
2017-12-09T19:53:55.834Z,24.90
2017-12-09T19:56:23.260Z,24.80
2017-12-09T19:58:50.693Z,25.30
2017-12-09T20:01:18.115Z,25.60
2017-12-09T20:03:45.553Z,25.70
2017-12-09T20:06:12.981Z,25.80
2017-12-09T20:08:40.414Z,26.10
2017-12-09T20:11:07.830Z,26.10
2017-12-09T20:13:36.033Z,26.60
2017-12-09T20:16:03.458Z,26.10
2017-12-09T20:18:30.895Z,25.90
2017-12-09T20:20:58.323Z,26.10
2017-12-09T20:23:25.745Z,26.10
2017-12-09T20:25:53.173Z,26.20
2017-12-09T20:28:20.641Z,26.30
2017-12-09T20:30:48.856Z,26.20
2017-12-09T20:33:16.285Z,26.10
2017-12-09T20:35:43.717Z,26.40
2017-12-09T20:38:11.424Z,26.60
2017-12-09T20:40:38.833Z,26.90
2017-12-09T20:43:07.016Z,28.00
2017-12-09T20:45:34.444Z,27.40
2017-12-09T20:48:01.882Z,28.10
2017-12-09T20:50:29.313Z,28.40
2017-12-09T20:52:56.777Z,28.90
2017-12-09T20:55:24.239Z,29.30
2017-12-09T20:57:51.736Z,29.50
2017-12-09T21:00:19.169Z,29.70
2017-12-09T21:02:46.594Z,29.80
2017-12-09T21:05:14.020Z,30.00
2017-12-09T21:07:42.204Z,30.30
2017-12-09T21:10:09.644Z,30.30
2017-12-09T21:12:37.059Z,30.30
2017-12-09T21:15:04.537Z,30.30
2017-12-09T21:17:31.965Z,30.30
2017-12-09T21:19:59.396Z,30.80
2017-12-09T21:22:26.819Z,31.00
2017-12-09T21:24:55.014Z,31.20
2017-12-09T21:27:22.448Z,31.20
2017-12-09T21:29:49.868Z,30.80
2017-12-09T21:32:17.307Z,30.70
2017-12-09T21:34:44.759Z,29.90
2017-12-09T21:37:12.171Z,29.00
2017-12-09T21:39:40.365Z,28.30
2017-12-09T21:42:08.114Z,28.30
2017-12-09T21:44:36.314Z,27.90
2017-12-09T21:47:07.623Z,27.90
2017-12-09T21:49:35.028Z,27.30
2017-12-09T21:52:02.497Z,27.50
2017-12-09T21:54:29.892Z,27.20
2017-12-09T21:56:58.084Z,27.70
2017-12-09T21:59:25.503Z,27.10
2017-12-09T22:01:53.050Z,27.10
2017-12-09T22:04:20.485Z,27.00
2017-12-09T22:06:47.934Z,26.80
2017-12-09T22:09:15.374Z,26.70
2017-12-09T22:11:42.812Z,26.70
2017-12-09T22:14:10.248Z,26.60
2017-12-09T22:16:37.974Z,26.20
2017-12-09T22:19:05.392Z,26.70
2017-12-09T22:21:33.580Z,27.20
2017-12-09T22:24:01.017Z,27.10
2017-12-09T22:26:28.454Z,27.00
2017-12-09T22:28:55.876Z,27.10
2017-12-09T22:31:23.291Z,27.30
2017-12-09T22:33:50.720Z,28.00
2017-12-09T22:36:18.145Z,27.70
2017-12-09T22:38:45.597Z,28.10
2017-12-09T22:41:13.021Z,28.20
2017-12-09T22:43:40.441Z,28.20
2017-12-09T22:46:07.873Z,28.60
2017-12-09T22:48:36.066Z,28.70
2017-12-09T22:51:03.497Z,28.80
2017-12-09T22:53:30.919Z,28.80
2017-12-09T22:55:58.355Z,28.90
2017-12-09T22:58:25.789Z,28.90
2017-12-09T23:00:53.225Z,28.90
2017-12-09T23:03:20.660Z,29.00
2017-12-09T23:05:48.091Z,29.00
2017-12-09T23:08:15.510Z,29.20
2017-12-09T23:10:42.942Z,29.00
2017-12-09T23:13:10.376Z,29.00
2017-12-09T23:15:37.799Z,28.90
2017-12-09T23:18:06.001Z,28.80
2017-12-09T23:20:33.436Z,28.70
2017-12-09T23:23:00.865Z,28.70
2017-12-09T23:25:28.293Z,28.60
2017-12-09T23:27:55.729Z,28.50
2017-12-09T23:30:23.188Z,28.60
2017-12-09T23:32:50.633Z,28.90
2017-12-09T23:35:18.057Z,29.20
2017-12-09T23:37:45.495Z,29.20
2017-12-09T23:40:12.921Z,29.10
2017-12-09T23:42:40.370Z,29.00
2017-12-09T23:45:07.813Z,29.60
2017-12-09T23:47:35.244Z,29.60
2017-12-09T23:50:02.678Z,29.60
2017-12-09T23:52:30.105Z,29.90
2017-12-09T23:54:58.443Z,30.00
2017-12-09T23:57:26.292Z,30.00
2017-12-09T23:59:53.716Z,30.20
